Terminal Aerodrome Forecast
Issued by NWS

Home | Current Version | Previous Version | Text Only | Print | Product List | Glossary On
Versions: 1 2 3 4 5 6 7 8 9 10 11 12 13 14 15 16 17 18 19 20 21 22 23 24
000
FTUS41 KCAR 300843 AAB
TAFBHB
TAF AMD
KBHB 300843Z 3009/3106 00000KT 5SM BR SCT003
     FM301000 12004KT 1SM BR BKN002
     FM301200 13005KT P6SM SCT250
     FM301900 17008KT P6SM BKN250
     FM310000 18006KT 6SM -RA SCT010 OVC060
     FM310400 18005KT 2SM -RA BR BKN002
      AMD LTD TO CLD VIS AND WIND=

USA.gov is the U.S. government's official web portal to all federal, state and local government web resources and services.